Terminal Aerodrome Forecast
Issued by NWS

Home | Current Version | Previous Version | Text Only | Print | Product List | Glossary On
Versions: 1 2 3 4 5 6 7 8 9 10 11 12 13 14 15 16 17 18 19 20 21 22 23 24 25 26 27 28
000
FTUS41 KCAR 280231 AAA
TAFFVE
TAF AMD
KFVE 280231Z 2803/2824 16007KT P6SM SCT250
     FM280500 22004KT P6SM OVC004
     FM281000 30007KT P6SM SCT004 OVC010
     FM281300 33012G20KT P6SM OVC015
     FM281600 34012G20KT P6SM BKN050=

USA.gov is the U.S. government's official web portal to all federal, state and local government web resources and services.